sensor_id;sensor_type;location;lat;lon;timestamp;P1;durP1;ratioP1;P2;durP2;ratioP2
19404;SDS011;9838;49.384;8.292;2022-08-23T00:06:54;3.28;;;1.50;;
19404;SDS011;9838;49.384;8.292;2022-08-23T00:16:57;3.90;;;1.65;;
19404;SDS011;9838;49.384;8.292;2022-08-23T00:27:01;3.35;;;1.77;;
19404;SDS011;9838;49.384;8.292;2022-08-23T00:37:07;5.47;;;2.10;;
19404;SDS011;9838;49.384;8.292;2022-08-23T00:47:10;3.45;;;1.90;;
19404;SDS011;9838;49.384;8.292;2022-08-23T00:57:33;5.82;;;2.15;;
19404;SDS011;9838;49.384;8.292;2022-08-23T01:07:40;4.05;;;1.92;;
19404;SDS011;9838;49.384;8.292;2022-08-23T01:18:00;3.55;;;1.63;;
19404;SDS011;9838;49.384;8.292;2022-08-23T01:28:02;4.10;;;1.63;;
19404;SDS011;9838;49.384;8.292;2022-08-23T01:38:05;2.67;;;1.17;;
19404;SDS011;9838;49.384;8.292;2022-08-23T01:48:08;2.28;;;1.20;;
19404;SDS011;9838;49.384;8.292;2022-08-23T01:58:10;2.45;;;1.13;;
19404;SDS011;9838;49.384;8.292;2022-08-23T02:08:12;3.55;;;1.58;;
19404;SDS011;9838;49.384;8.292;2022-08-23T02:18:34;2.92;;;1.85;;
19404;SDS011;9838;49.384;8.292;2022-08-23T02:28:37;5.10;;;2.53;;
19404;SDS011;9838;49.384;8.292;2022-08-23T02:38:38;7.43;;;3.63;;
19404;SDS011;9838;49.384;8.292;2022-08-23T02:48:40;8.60;;;4.13;;
19404;SDS011;9838;49.384;8.292;2022-08-23T02:58:43;9.15;;;5.07;;
19404;SDS011;9838;49.384;8.292;2022-08-23T03:08:52;15.75;;;8.00;;
19404;SDS011;9838;49.384;8.292;2022-08-23T03:18:54;11.70;;;5.82;;
19404;SDS011;9838;49.384;8.292;2022-08-23T03:28:56;15.48;;;6.38;;
19404;SDS011;9838;49.384;8.292;2022-08-23T03:39:03;12.32;;;6.03;;
19404;SDS011;9838;49.384;8.292;2022-08-23T03:49:05;9.25;;;5.30;;
19404;SDS011;9838;49.384;8.292;2022-08-23T03:59:17;11.98;;;5.25;;
19404;SDS011;9838;49.384;8.292;2022-08-23T04:09:19;11.23;;;5.65;;
19404;SDS011;9838;49.384;8.292;2022-08-23T04:19:22;11.98;;;5.80;;
19404;SDS011;9838;49.384;8.292;2022-08-23T04:29:34;10.00;;;4.75;;
19404;SDS011;9838;49.384;8.292;2022-08-23T04:39:38;5.07;;;3.35;;
19404;SDS011;9838;49.384;8.292;2022-08-23T04:50:02;8.02;;;4.07;;
19404;SDS011;9838;49.384;8.292;2022-08-23T05:00:05;8.25;;;3.88;;
19404;SDS011;9838;49.384;8.292;2022-08-23T05:10:11;9.00;;;5.05;;
19404;SDS011;9838;49.384;8.292;2022-08-23T05:20:16;11.23;;;4.85;;
19404;SDS011;9838;49.384;8.292;2022-08-23T05:30:18;9.80;;;3.47;;
19404;SDS011;9838;49.384;8.292;2022-08-23T05:40:20;5.35;;;2.75;;
19404;SDS011;9838;49.384;8.292;2022-08-23T05:50:35;3.50;;;1.90;;
19404;SDS011;9838;49.384;8.292;2022-08-23T06:00:38;4.15;;;2.05;;
19404;SDS011;9838;49.384;8.292;2022-08-23T06:10:40;3.38;;;1.52;;
19404;SDS011;9838;49.384;8.292;2022-08-23T06:21:03;1.45;;;0.90;;
19404;SDS011;9838;49.384;8.292;2022-08-23T06:31:15;1.40;;;0.70;;
19404;SDS011;9838;49.384;8.292;2022-08-23T06:41:40;2.70;;;0.50;;
19404;SDS011;9838;49.384;8.292;2022-08-23T06:52:01;1.23;;;0.70;;
19404;SDS011;9838;49.384;8.292;2022-08-23T07:02:26;1.58;;;0.63;;
19404;SDS011;9838;49.384;8.292;2022-08-23T07:12:30;1.27;;;0.90;;
19404;SDS011;9838;49.384;8.292;2022-08-23T07:22:32;1.92;;;0.68;;
19404;SDS011;9838;49.384;8.292;2022-08-23T07:32:34;0.85;;;0.70;;
19404;SDS011;9838;49.384;8.292;2022-08-23T07:42:56;0.88;;;0.50;;
19404;SDS011;9838;49.384;8.292;2022-08-23T07:52:58;1.38;;;0.70;;
19404;SDS011;9838;49.384;8.292;2022-08-23T08:03:02;0.77;;;0.60;;
19404;SDS011;9838;49.384;8.292;2022-08-23T08:13:18;2.63;;;1.00;;
19404;SDS011;9838;49.384;8.292;2022-08-23T08:23:21;1.10;;;0.70;;
19404;SDS011;9838;49.384;8.292;2022-08-23T08:33:50;1.65;;;0.90;;
19404;SDS011;9838;49.384;8.292;2022-08-23T08:54:06;3.67;;;0.80;;
19404;SDS011;9838;49.384;8.292;2022-08-23T09:04:13;2.42;;;1.00;;
19404;SDS011;9838;49.384;8.292;2022-08-23T09:24:19;2.88;;;1.25;;
19404;SDS011;9838;49.384;8.292;2022-08-23T09:34:38;1.48;;;0.80;;
19404;SDS011;9838;49.384;8.292;2022-08-23T09:44:47;2.47;;;0.95;;
19404;SDS011;9838;49.384;8.292;2022-08-23T09:54:56;1.90;;;0.93;;
19404;SDS011;9838;49.384;8.292;2022-08-23T10:04:59;1.35;;;0.68;;
19404;SDS011;9838;49.384;8.292;2022-08-23T10:15:07;1.90;;;1.20;;
19404;SDS011;9838;49.384;8.292;2022-08-23T10:55:36;1.70;;;0.70;;
19404;SDS011;9838;49.384;8.292;2022-08-23T11:16:28;2.00;;;1.08;;
19404;SDS011;9838;49.384;8.292;2022-08-23T11:36:42;1.60;;;1.00;;
19404;SDS011;9838;49.384;8.292;2022-08-23T11:47:08;1.63;;;0.80;;
19404;SDS011;9838;49.384;8.292;2022-08-23T12:07:15;1.38;;;0.80;;
19404;SDS011;9838;49.384;8.292;2022-08-23T12:37:51;0.93;;;0.65;;
19404;SDS011;9838;49.384;8.292;2022-08-23T12:47:57;1.20;;;0.57;;
19404;SDS011;9838;49.384;8.292;2022-08-23T12:58:00;1.48;;;0.85;;
19404;SDS011;9838;49.384;8.292;2022-08-23T13:08:10;1.55;;;0.80;;
19404;SDS011;9838;49.384;8.292;2022-08-23T13:28:59;1.83;;;0.80;;
19404;SDS011;9838;49.384;8.292;2022-08-23T13:39:03;1.10;;;0.60;;
19404;SDS011;9838;49.384;8.292;2022-08-23T13:49:09;1.13;;;0.70;;
19404;SDS011;9838;49.384;8.292;2022-08-23T13:59:21;0.85;;;0.60;;
19404;SDS011;9838;49.384;8.292;2022-08-23T14:09:29;2.85;;;0.80;;
19404;SDS011;9838;49.384;8.292;2022-08-23T14:19:33;1.02;;;0.70;;
19404;SDS011;9838;49.384;8.292;2022-08-23T14:29:35;1.15;;;0.60;;
19404;SDS011;9838;49.384;8.292;2022-08-23T14:39:37;1.60;;;0.80;;
19404;SDS011;9838;49.384;8.292;2022-08-23T14:49:38;1.60;;;0.80;;
19404;SDS011;9838;49.384;8.292;2022-08-23T14:59:40;1.00;;;0.65;;
19404;SDS011;9838;49.384;8.292;2022-08-23T15:09:42;0.85;;;0.57;;
19404;SDS011;9838;49.384;8.292;2022-08-23T15:19:44;1.58;;;0.70;;
19404;SDS011;9838;49.384;8.292;2022-08-23T15:29:45;1.20;;;0.70;;
19404;SDS011;9838;49.384;8.292;2022-08-23T15:39:48;1.20;;;0.60;;
19404;SDS011;9838;49.384;8.292;2022-08-23T15:49:50;3.17;;;0.70;;
19404;SDS011;9838;49.384;8.292;2022-08-23T15:59:52;1.98;;;0.90;;
19404;SDS011;9838;49.384;8.292;2022-08-23T16:09:54;2.58;;;0.70;;
19404;SDS011;9838;49.384;8.292;2022-08-23T16:19:59;0.90;;;0.63;;
19404;SDS011;9838;49.384;8.292;2022-08-23T16:30:02;1.70;;;0.80;;
19404;SDS011;9838;49.384;8.292;2022-08-23T16:40:04;1.00;;;0.60;;
19404;SDS011;9838;49.384;8.292;2022-08-23T16:50:07;0.93;;;0.60;;
19404;SDS011;9838;49.384;8.292;2022-08-23T17:00:09;1.10;;;0.70;;
19404;SDS011;9838;49.384;8.292;2022-08-23T17:10:14;0.75;;;0.50;;
19404;SDS011;9838;49.384;8.292;2022-08-23T17:20:16;0.93;;;0.65;;
19404;SDS011;9838;49.384;8.292;2022-08-23T17:30:19;1.02;;;0.57;;
19404;SDS011;9838;49.384;8.292;2022-08-23T17:40:24;1.23;;;0.50;;
19404;SDS011;9838;49.384;8.292;2022-08-23T17:50:26;1.30;;;0.57;;
19404;SDS011;9838;49.384;8.292;2022-08-23T18:00:28;1.30;;;0.73;;
19404;SDS011;9838;49.384;8.292;2022-08-23T18:10:31;1.23;;;0.60;;
19404;SDS011;9838;49.384;8.292;2022-08-23T18:20:33;3.67;;;0.82;;
19404;SDS011;9838;49.384;8.292;2022-08-23T18:30:51;1.13;;;0.63;;
19404;SDS011;9838;49.384;8.292;2022-08-23T18:40:57;0.90;;;0.60;;
19404;SDS011;9838;49.384;8.292;2022-08-23T18:50:59;4.47;;;0.90;;
19404;SDS011;9838;49.384;8.292;2022-08-23T19:01:01;2.47;;;0.77;;
19404;SDS011;9838;49.384;8.292;2022-08-23T19:11:03;2.90;;;0.95;;
19404;SDS011;9838;49.384;8.292;2022-08-23T19:21:05;2.78;;;0.80;;
19404;SDS011;9838;49.384;8.292;2022-08-23T19:31:07;1.65;;;0.63;;
19404;SDS011;9838;49.384;8.292;2022-08-23T19:41:09;2.67;;;0.77;;
19404;SDS011;9838;49.384;8.292;2022-08-23T19:51:12;2.00;;;0.93;;
19404;SDS011;9838;49.384;8.292;2022-08-23T20:01:14;2.90;;;1.05;;
19404;SDS011;9838;49.384;8.292;2022-08-23T20:11:16;2.33;;;0.95;;
19404;SDS011;9838;49.384;8.292;2022-08-23T20:21:18;5.10;;;1.23;;
19404;SDS011;9838;49.384;8.292;2022-08-23T20:31:21;3.85;;;1.20;;
19404;SDS011;9838;49.384;8.292;2022-08-23T20:41:24;2.38;;;0.93;;
19404;SDS011;9838;49.384;8.292;2022-08-23T20:51:27;2.45;;;0.90;;
19404;SDS011;9838;49.384;8.292;2022-08-23T21:01:29;1.80;;;0.88;;
19404;SDS011;9838;49.384;8.292;2022-08-23T21:11:31;1.70;;;0.90;;
19404;SDS011;9838;49.384;8.292;2022-08-23T21:21:32;1.85;;;0.88;;
19404;SDS011;9838;49.384;8.292;2022-08-23T21:31:34;1.55;;;0.70;;
19404;SDS011;9838;49.384;8.292;2022-08-23T21:41:37;1.60;;;0.82;;
19404;SDS011;9838;49.384;8.292;2022-08-23T21:51:39;1.63;;;0.80;;
19404;SDS011;9838;49.384;8.292;2022-08-23T22:01:42;1.38;;;0.80;;
19404;SDS011;9838;49.384;8.292;2022-08-23T22:11:45;1.80;;;0.90;;
19404;SDS011;9838;49.384;8.292;2022-08-23T22:21:47;3.38;;;1.33;;
19404;SDS011;9838;49.384;8.292;2022-08-23T22:31:50;4.80;;;1.20;;
19404;SDS011;9838;49.384;8.292;2022-08-23T22:41:52;5.18;;;1.13;;
19404;SDS011;9838;49.384;8.292;2022-08-23T22:51:55;2.58;;;1.10;;
19404;SDS011;9838;49.384;8.292;2022-08-23T23:01:56;5.20;;;1.13;;
19404;SDS011;9838;49.384;8.292;2022-08-23T23:11:58;1.88;;;1.00;;
19404;SDS011;9838;49.384;8.292;2022-08-23T23:22:00;1.92;;;1.13;;
19404;SDS011;9838;49.384;8.292;2022-08-23T23:32:02;2.08;;;0.90;;
19404;SDS011;9838;49.384;8.292;2022-08-23T23:42:04;1.80;;;0.82;;
19404;SDS011;9838;49.384;8.292;2022-08-23T23:52:05;2.65;;;1.10;;
